Aviation Digital Data Service (ADDS)

Output produced by METARs form (1841 UTC 05 March 2015)
found at http://aviationweather.gov/adds/metars/
 
KPVD 051723Z 0518/0618 34010KT 1/2SM SN OVC015 
     FM052200 34006KT 3/4SM -SN OVC015 
     FM060200 34006KT P6SM OVC020 
     FM060300 34007KT P6SM OVC050 
     FM060600 35007KT P6SM SCT250 
     FM061600 VRB03KT P6SM SKC